Time;durP1;ratioP1;P1;durP2;ratioP2;P2;SDS_P1;SDS_P2;PMS_P1;PMS_P2;Temp;Humidity;BMP_temperature;BMP_pressure;BME280_temperature;BME280_humidity;BME280_pressure;Samples;Min_cycle;Max_cycle;Signal;HPM_P1;HPM_P2
2023/02/18 00:00:58;;;;;;;1999.90;999.90;;;;;;;7.20;100.00;98864.22;5095439;28;20035;-76
2023/02/18 00:03:25;;;;;;;1999.90;999.90;;;;;;;7.18;100.00;98860.09;5108493;28;20020;-76
2023/02/18 00:05:51;;;;;;;1999.90;999.90;;;;;;;7.15;100.00;98858.69;5097899;28;20072;-75
2023/02/18 00:08:17;;;;;;;1999.90;999.90;;;;;;;7.15;100.00;98857.88;5100467;28;20044;-76
2023/02/18 00:10:42;;;;;;;1999.90;999.90;;;;;;;7.11;100.00;98852.09;5105029;28;20035;-75
2023/02/18 00:13:08;;;;;;;1999.90;999.90;;;;;;;7.13;100.00;98852.69;5094049;28;20581;-74
2023/02/18 00:15:37;;;;;;;1999.90;999.90;;;;;;;7.15;100.00;98858.69;5106188;27;20096;-75
2023/02/18 00:18:03;;;;;;;1999.90;999.90;;;;;;;7.11;100.00;98854.81;5099243;28;20015;-74
2023/02/18 00:20:29;;;;;;;1999.90;999.90;;;;;;;7.16;100.00;98856.81;5098612;28;20366;-75
2023/02/18 00:22:54;;;;;;;1999.90;999.90;;;;;;;7.12;100.00;98856.47;5106572;28;20026;-74
2023/02/18 00:25:20;;;;;;;1999.90;999.90;;;;;;;7.08;100.00;98855.31;5098532;28;20034;-75
2023/02/18 00:27:45;;;;;;;1999.90;999.90;;;;;;;7.03;100.00;98847.09;5104740;28;20024;-75
2023/02/18 00:30:11;;;;;;;1999.90;999.90;;;;;;;7.02;100.00;98856.34;5101377;28;20023;-76
2023/02/18 00:32:36;;;;;;;1999.90;999.90;;;;;;;7.09;100.00;98865.16;5097253;28;20024;-76
2023/02/18 00:35:01;;;;;;;1999.90;999.90;;;;;;;7.04;100.00;98843.31;5107655;28;20030;-75
2023/02/18 00:37:27;;;;;;;1999.90;999.90;;;;;;;7.12;100.00;98850.22;5095180;28;20547;-76
2023/02/18 00:39:53;;;;;;;1999.90;999.90;;;;;;;7.10;100.00;98857.81;5103510;28;20039;-75
2023/02/18 00:42:18;;;;;;;1999.90;999.90;;;;;;;7.13;100.00;98857.31;5102331;28;20110;-76
2023/02/18 00:44:44;;;;;;;1999.90;999.90;;;;;;;7.08;100.00;98858.03;5094562;28;20032;-75
2023/02/18 00:47:09;;;;;;;1999.90;999.90;;;;;;;7.17;100.00;98858.47;5107491;28;20026;-77
2023/02/18 00:49:34;;;;;;;1999.90;999.90;;;;;;;7.21;100.00;98860.41;5093205;28;20144;-76
2023/02/18 00:52:00;;;;;;;1999.90;999.90;;;;;;;7.17;100.00;98855.75;5098872;28;20020;-74
2023/02/18 00:54:25;;;;;;;1999.90;999.90;;;;;;;7.22;100.00;98850.34;5099381;28;20111;-76
2023/02/18 00:56:51;;;;;;;1999.90;999.90;;;;;;;7.31;100.00;98848.84;5105758;28;20031;-75
2023/02/18 00:59:16;;;;;;;1999.90;999.90;;;;;;;7.30;100.00;98845.28;5106810;28;20500;-75
2023/02/18 01:01:41;;;;;;;1999.90;999.90;;;;;;;7.36;100.00;98847.00;5096792;28;20049;-74
2023/02/18 01:04:07;;;;;;;1999.90;999.90;;;;;;;7.31;100.00;98837.97;5100887;28;20431;-75
2023/02/18 01:06:32;;;;;;;1999.90;999.90;;;;;;;7.34;100.00;98842.91;5103836;28;20024;-76
2023/02/18 01:08:58;;;;;;;1999.90;999.90;;;;;;;7.37;100.00;98842.38;5093721;28;20066;-76
2023/02/18 01:11:23;;;;;;;1999.90;999.90;;;;;;;7.33;100.00;98836.63;5107140;28;20051;-77
2023/02/18 01:13:48;;;;;;;1999.90;999.90;;;;;;;7.30;100.00;98836.34;5097712;28;20106;-76
2023/02/18 01:16:14;;;;;;;1999.90;999.90;;;;;;;7.32;100.00;98840.44;5099997;28;20069;-74
2023/02/18 01:18:39;;;;;;;1999.90;999.90;;;;;;;7.31;100.00;98838.78;5104828;28;20042;-75
2023/02/18 01:21:07;;;;;;;1999.90;999.90;;;;;;;7.34;100.00;98832.84;5093974;28;20028;-75
2023/02/18 01:23:33;;;;;;;1999.90;999.90;;;;;;;7.23;100.00;98809.31;5103774;28;20366;-76
2023/02/18 01:25:58;;;;;;;1999.90;999.90;;;;;;;7.31;100.00;98824.34;5091776;28;20043;-76
2023/02/18 01:28:24;;;;;;;1999.90;999.90;;;;;;;7.28;100.00;98819.41;5102608;28;20465;-75
2023/02/18 01:30:51;;;;;;;1999.90;999.90;;;;;;;7.26;100.00;98827.84;5094979;28;20024;-75
2023/02/18 01:33:17;;;;;;;1999.90;999.90;;;;;;;7.28;100.00;98828.41;5113053;28;20012;-78
2023/02/18 01:35:42;;;;;;;1999.90;999.90;;;;;;;7.29;100.00;98845.56;5103239;28;20046;-76
2023/02/18 01:38:08;;;;;;;1999.90;999.90;;;;;;;7.32;100.00;98835.00;5106592;28;20024;-74
2023/02/18 01:40:34;;;;;;;1999.90;999.90;;;;;;;7.28;100.00;98824.84;5108343;28;20016;-74
2023/02/18 01:43:00;;;;;;;1999.90;999.90;;;;;;;7.24;100.00;98821.00;5097782;27;20031;-77
2023/02/18 01:45:34;;;;;;;1999.90;999.90;;;;;;;7.24;100.00;98827.25;5110525;27;20107;-76
2023/02/18 01:48:24;;;;;;;1999.90;999.90;;;;;;;7.21;100.00;98819.59;5102966;28;20039;-76
2023/02/18 01:50:55;;;;;;;1999.90;999.90;;;;;;;7.23;100.00;98820.19;5093034;28;20049;-77
2023/02/18 01:53:32;;;;;;;1999.90;999.90;;;;;;;7.20;100.00;98809.81;5111257;28;20016;-74
2023/02/18 01:55:59;;;;;;;1999.90;999.90;;;;;;;7.28;100.00;98820.25;5094061;28;20028;-76
2023/02/18 01:58:24;;;;;;;1999.90;999.90;;;;;;;7.25;100.00;98817.19;5095511;28;20492;-76
2023/02/18 02:00:50;;;;;;;1999.90;999.90;;;;;;;7.31;100.00;98821.63;5114435;28;20030;-74
2023/02/18 02:03:15;;;;;;;1999.90;999.90;;;;;;;7.25;100.00;98826.19;5114456;28;20031;-75
2023/02/18 02:05:40;;;;;;;1999.90;999.90;;;;;;;7.28;100.00;98822.97;5114521;28;20060;-75
2023/02/18 02:08:06;;;;;;;1999.90;999.90;;;;;;;7.29;100.00;98823.78;5114054;28;20519;-77
2023/02/18 02:10:54;;;;;;;1999.90;999.90;;;;;;;7.24;100.00;98821.81;5113812;28;20030;-75
2023/02/18 02:13:37;;;;;;;1999.90;999.90;;;;;;;7.24;100.00;98823.72;5093935;28;20039;-74
2023/02/18 02:16:25;;;;;;;1999.90;999.90;;;;;;;7.24;100.00;98824.53;5093711;28;20051;-75
2023/02/18 02:19:07;;;;;;;1999.90;999.90;;;;;;;7.31;100.00;98825.19;5094304;28;20042;-74
2023/02/18 02:21:50;;;;;;;1999.90;999.90;;;;;;;7.32;100.00;98823.28;5092937;28;20046;-74
2023/02/18 02:24:53;;;;;;;1999.90;999.90;;;;;;;7.33;100.00;98820.31;5093997;28;20028;-75
2023/02/18 02:27:22;;;;;;;1999.90;999.90;;;;;;;7.26;100.00;98819.69;5093953;28;20086;-77
2023/02/18 02:30:12;;;;;;;1999.90;999.90;;;;;;;7.28;100.00;98822.13;5093324;28;20077;-79
2023/02/18 02:33:16;;;;;;;1999.90;999.90;;;;;;;7.29;100.00;98807.47;5093649;28;20376;-76
2023/02/18 02:36:09;;;;;;;1999.90;999.90;;;;;;;7.33;100.00;98809.41;5090630;28;20845;-76
2023/02/18 02:38:55;;;;;;;1999.90;999.90;;;;;;;7.37;100.00;98818.72;5048080;28;20051;-76
2023/02/18 02:41:29;;;;;;;1999.90;999.90;;;;;;;7.33;100.00;98809.41;5093486;28;20028;-76
2023/02/18 02:44:17;;;;;;;1999.90;999.90;;;;;;;7.30;100.00;98809.13;5093321;28;20016;-76
2023/02/18 02:46:45;;;;;;;1999.90;999.90;;;;;;;7.32;100.00;98807.78;5092242;28;20123;-78
2023/02/18 02:49:13;;;;;;;1999.90;999.90;;;;;;;7.31;100.00;98811.56;5093775;28;20471;-76
2023/02/18 02:52:18;;;;;;;1999.90;999.90;;;;;;;7.35;100.00;98806.47;5093590;28;20031;-74
2023/02/18 02:54:43;;;;;;;1999.90;999.90;;;;;;;7.37;100.00;98804.28;5093521;28;20028;-75
2023/02/18 02:57:09;;;;;;;1999.90;999.90;;;;;;;7.40;100.00;98799.16;5094567;28;20024;-74
2023/02/18 02:59:38;;;;;;;1999.90;999.90;;;;;;;7.37;100.00;98793.41;5094791;28;20051;-75
2023/02/18 03:02:31;;;;;;;1999.90;999.90;;;;;;;7.36;100.00;98795.31;5094296;28;20074;-74
2023/02/18 03:05:09;;;;;;;1999.90;999.90;;;;;;;7.40;100.00;98810.06;5092704;28;20173;-75
2023/02/18 03:07:56;;;;;;;1999.90;999.90;;;;;;;7.41;100.00;98817.16;5108660;28;20047;-75
2023/02/18 03:10:46;;;;;;;1999.90;999.90;;;;;;;7.42;100.00;98824.22;5093129;28;20123;-75
2023/02/18 03:13:32;;;;;;;1999.90;999.90;;;;;;;7.48;100.00;98823.22;5092690;28;20040;-76
2023/02/18 03:16:24;;;;;;;1999.90;999.90;;;;;;;7.46;100.00;98821.81;5093391;28;20024;-74
2023/02/18 03:18:59;;;;;;;1999.90;999.90;;;;;;;7.45;100.00;98814.75;5092871;28;20533;-75
2023/02/18 03:21:33;;;;;;;1999.90;999.90;;;;;;;7.46;100.00;98803.59;5092713;28;20028;-76
2023/02/18 03:24:09;;;;;;;1999.90;999.90;;;;;;;7.44;100.00;98797.59;5092962;28;20054;-75
2023/02/18 03:26:41;;;;;;;1999.90;999.90;;;;;;;7.42;100.00;98801.66;5092550;28;20541;-74
2023/02/18 03:29:09;;;;;;;1999.90;999.90;;;;;;;7.45;100.00;98812.03;5092649;28;20032;-76
2023/02/18 03:31:37;;;;;;;1999.90;999.90;;;;;;;7.46;100.00;98800.88;5092390;28;20031;-74
2023/02/18 03:34:22;;;;;;;1999.90;999.90;;;;;;;7.40;100.00;98807.34;5093811;28;20028;-75
2023/02/18 03:36:47;;;;;;;1999.90;999.90;;;;;;;7.40;100.00;98810.06;5092255;28;20073;-75
2023/02/18 03:39:15;;;;;;;1999.90;999.90;;;;;;;7.47;100.00;98816.13;5092293;28;20027;-77
2023/02/18 03:41:42;;;;;;;1999.90;999.90;;;;;;;7.44;100.00;98816.66;5090788;28;20391;-75
2023/02/18 03:44:09;;;;;;;1999.90;999.90;;;;;;;7.40;100.00;98814.66;5092106;28;20035;-73
2023/02/18 03:46:37;;;;;;;1999.90;999.90;;;;;;;7.49;100.00;98813.97;5091626;28;20028;-74
2023/02/18 03:49:03;;;;;;;1999.90;999.90;;;;;;;7.40;100.00;98793.72;5091495;28;20079;-74
2023/02/18 03:51:29;;;;;;;1999.90;999.90;;;;;;;7.45;100.00;98801.16;5092043;28;20051;-76
2023/02/18 03:53:54;;;;;;;1999.90;999.90;;;;;;;7.45;100.00;98801.97;5092352;28;20043;-76
2023/02/18 03:56:20;;;;;;;1999.90;999.90;;;;;;;7.56;100.00;98819.22;5091984;28;20073;-75
2023/02/18 03:58:45;;;;;;;1999.90;999.90;;;;;;;7.53;100.00;98808.84;5091664;28;20498;-75
2023/02/18 04:01:11;;;;;;;1999.90;999.90;;;;;;;7.51;100.00;98814.56;5096029;28;20020;-75
2023/02/18 04:03:36;;;;;;;1999.90;999.90;;;;;;;7.50;100.00;98812.91;5112140;28;20019;-75
2023/02/18 04:06:02;;;;;;;1999.90;999.90;;;;;;;7.52;100.00;98807.19;5111967;28;20494;-75
2023/02/18 04:08:27;;;;;;;1999.90;999.90;;;;;;;7.58;100.00;98825.22;5110786;28;20164;-77
2023/02/18 04:10:53;;;;;;;1999.90;999.90;;;;;;;7.59;100.00;98823.34;5112397;28;20136;-76
2023/02/18 04:13:18;;;;;;;1999.90;999.90;;;;;;;7.43;100.00;98801.38;5112017;28;20102;-76
2023/02/18 04:15:44;;;;;;;1999.90;999.90;;;;;;;7.59;100.00;98820.59;5091775;28;20032;-75
2023/02/18 04:18:10;;;;;;;1999.90;999.90;;;;;;;7.57;100.00;98822.78;5090506;28;20103;-79
2023/02/18 04:20:36;;;;;;;1999.90;999.90;;;;;;;7.59;100.00;98821.44;5091287;28;20115;-77
2023/02/18 04:23:02;;;;;;;1999.90;999.90;;;;;;;7.58;100.00;98825.22;5077606;28;20028;-74
2023/02/18 04:25:27;;;;;;;1999.90;999.90;;;;;;;7.58;100.00;98819.78;5091013;28;20035;-74
2023/02/18 04:27:52;;;;;;;1999.90;999.90;;;;;;;7.58;100.00;98819.78;5090565;28;20036;-75
2023/02/18 04:30:18;;;;;;;1999.90;999.90;;;;;;;7.48;100.00;98806.06;5089875;28;20028;-75
2023/02/18 04:32:43;;;;;;;1999.90;999.90;;;;;;;7.52;100.00;98821.63;5091037;28;20103;-78
2023/02/18 04:35:09;;;;;;;1999.90;999.90;;;;;;;7.58;100.00;98819.78;5090940;28;20066;-74
2023/02/18 04:37:34;;;;;;;1999.90;999.90;;;;;;;7.63;100.00;98824.47;5090702;28;20031;-80
2023/02/18 04:39:59;;;;;;;1999.90;999.90;;;;;;;7.55;100.00;98818.41;5080340;28;20577;-77
2023/02/18 04:42:25;;;;;;;1999.90;999.90;;;;;;;7.60;100.00;98814.91;5070669;28;20020;-77
2023/02/18 04:44:50;;;;;;;1999.90;999.90;;;;;;;7.57;100.00;98820.06;5070523;28;20043;-77
2023/02/18 04:47:16;;;;;;;1999.90;999.90;;;;;;;7.60;100.00;98814.09;5070578;28;20033;-82
2023/02/18 04:49:41;;;;;;;1999.90;999.90;;;;;;;7.53;100.00;98811.56;5070677;28;20119;-76
2023/02/18 04:52:06;;;;;;;1999.90;999.90;;;;;;;7.58;100.00;98816.25;5070730;28;20081;-77
2023/02/18 04:54:32;;;;;;;1999.90;999.90;;;;;;;7.46;100.00;98798.16;5073760;28;20025;-77
2023/02/18 04:56:57;;;;;;;1999.90;999.90;;;;;;;7.52;100.00;98788.13;5082524;28;20034;-76
2023/02/18 04:59:23;;;;;;;1999.90;999.90;;;;;;;7.52;100.00;98788.97;5091603;28;20028;-76
2023/02/18 05:01:48;;;;;;;1999.90;999.90;;;;;;;7.61;100.00;98793.97;5090656;28;20028;-75
2023/02/18 05:04:14;;;;;;;1999.90;999.90;;;;;;;7.47;100.00;98778.03;5090769;28;20030;-77
2023/02/18 05:06:41;;;;;;;1999.90;999.90;;;;;;;7.58;100.00;98783.59;5091009;28;20022;-75
2023/02/18 05:09:09;;;;;;;1999.90;999.90;;;;;;;7.60;100.00;98781.44;5090602;28;20097;-74
2023/02/18 05:11:34;;;;;;;1999.90;999.90;;;;;;;7.62;100.00;98785.53;5090479;28;20047;-74
2023/02/18 05:13:59;;;;;;;1999.90;999.90;;;;;;;7.60;100.00;98792.31;5090935;28;20028;-74
2023/02/18 05:16:25;;;;;;;1999.90;999.90;;;;;;;7.60;100.00;98782.25;5091242;28;20058;-76
2023/02/18 05:18:50;;;;;;;1999.90;999.90;;;;;;;7.63;100.00;98792.63;5093101;28;20030;-76
2023/02/18 05:21:16;;;;;;;1999.90;999.90;;;;;;;7.63;100.00;98787.19;5093359;28;20062;-75
2023/02/18 05:23:41;;;;;;;1999.90;999.90;;;;;;;7.60;100.00;98787.69;5092965;28;20032;-75
2023/02/18 05:26:06;;;;;;;1999.90;999.90;;;;;;;7.60;100.00;98798.59;5088396;28;20039;-75
2023/02/18 05:28:32;;;;;;;1999.90;999.90;;;;;;;7.60;100.00;98792.31;5090105;28;20039;-76
2023/02/18 05:30:57;;;;;;;1999.90;999.90;;;;;;;7.62;100.00;98798.31;5090369;28;20047;-74
2023/02/18 05:33:23;;;;;;;1999.90;999.90;;;;;;;7.67;100.00;98790.22;5089998;28;20024;-74
2023/02/18 05:35:48;;;;;;;1999.90;999.90;;;;;;;7.64;100.00;98771.69;5090120;28;20097;-75
2023/02/18 05:38:13;;;;;;;1999.90;999.90;;;;;;;7.72;100.00;98782.09;5089934;28;20017;-79
2023/02/18 05:40:39;;;;;;;1999.90;999.90;;;;;;;7.66;100.00;98789.41;5109765;28;20498;-76
2023/02/18 05:43:04;;;;;;;1999.90;999.90;;;;;;;7.66;100.00;98797.56;5110291;28;20047;-74
2023/02/18 05:45:29;;;;;;;1999.90;999.90;;;;;;;7.70;100.00;98796.00;5110427;28;20035;-75
2023/02/18 05:47:55;;;;;;;1999.90;999.90;;;;;;;7.68;100.00;98800.03;5110172;28;20059;-76
2023/02/18 05:50:20;;;;;;;1999.90;999.90;;;;;;;7.67;100.00;98784.78;5110474;28;20085;-75
2023/02/18 05:52:46;;;;;;;1999.90;999.90;;;;;;;7.65;100.00;98786.91;5108710;28;20016;-75
2023/02/18 05:55:11;;;;;;;1999.90;999.90;;;;;;;7.60;100.00;98789.59;5111575;28;20020;-77
2023/02/18 05:57:37;;;;;;;1999.90;999.90;;;;;;;7.64;100.00;98796.19;5110534;28;20024;-78
2023/02/18 06:00:04;;;;;;;1999.90;999.90;;;;;;;7.73;100.00;98805.53;5110730;28;20059;-77
2023/02/18 06:02:30;;;;;;;1999.90;999.90;;;;;;;7.63;100.00;98798.06;5115502;28;20106;-74
2023/02/18 06:04:55;;;;;;;1999.90;999.90;;;;;;;7.71;100.00;98802.22;5110179;28;20510;-75
2023/02/18 06:07:21;;;;;;;1999.90;999.90;;;;;;;7.74;100.00;98794.38;5102597;28;20052;-75
2023/02/18 06:09:46;;;;;;;1999.90;999.90;;;;;;;7.68;100.00;98811.72;5090580;28;20044;-76
2023/02/18 06:12:12;;;;;;;1999.90;999.90;;;;;;;7.68;100.00;98787.22;5098881;28;20102;-77
2023/02/18 06:14:40;;;;;;;1999.90;999.90;;;;;;;7.69;100.00;98824.28;5115377;28;20032;-76
2023/02/18 06:17:10;;;;;;;1999.90;999.90;;;;;;;7.71;100.00;98822.13;5100952;28;20016;-81
2023/02/18 06:19:35;;;;;;;1999.90;999.90;;;;;;;7.75;100.00;98831.44;5093606;28;20028;-77
2023/02/18 06:22:01;;;;;;;1999.90;999.90;;;;;;;7.77;100.00;98815.66;5093910;28;20032;-76
2023/02/18 06:24:26;;;;;;;1999.90;999.90;;;;;;;7.79;100.00;98820.84;5100962;28;20027;-76
2023/02/18 06:26:52;;;;;;;1999.90;999.90;;;;;;;7.81;100.00;98815.97;5113883;28;20527;-77
2023/02/18 06:29:17;;;;;;;1999.90;999.90;;;;;;;7.87;100.00;98823.09;5113739;27;20093;-79
2023/02/18 06:31:42;;;;;;;1999.90;999.90;;;;;;;7.86;100.00;98825.00;5112651;28;20118;-79
2023/02/18 06:34:08;;;;;;;1999.90;999.90;;;;;;;7.85;100.00;98819.81;5113831;28;20484;-80
2023/02/18 06:36:33;;;;;;;1999.90;999.90;;;;;;;7.77;100.00;98823.81;5113653;28;20062;-76
2023/02/18 06:39:02;;;;;;;1999.90;999.90;;;;;;;7.87;100.00;98832.09;5113435;28;20023;-75
2023/02/18 06:41:28;;;;;;;1999.90;999.90;;;;;;;7.88;100.00;98843.81;5114381;28;20051;-76
2023/02/18 06:43:53;;;;;;;1999.90;999.90;;;;;;;7.94;100.00;98837.34;5114837;28;20142;-76
2023/02/18 06:46:19;;;;;;;1999.90;999.90;;;;;;;7.94;100.00;98819.09;5114646;27;20024;-76
2023/02/18 06:48:44;;;;;;;1999.90;999.90;;;;;;;7.99;100.00;98829.22;5115211;28;20040;-76
2023/02/18 06:51:09;;;;;;;1999.90;999.90;;;;;;;8.00;100.00;98814.53;5113942;28;20031;-82
2023/02/18 06:53:35;;;;;;;1999.90;999.90;;;;;;;7.99;100.00;98816.41;5113537;28;20485;-76
2023/02/18 06:56:00;;;;;;;1999.90;999.90;;;;;;;7.99;100.00;98821.03;5113971;28;20495;-79
2023/02/18 06:58:25;;;;;;;1999.90;999.90;;;;;;;8.00;100.00;98815.34;5113775;28;20077;-75
2023/02/18 07:00:51;;;;;;;1999.90;999.90;;;;;;;8.07;100.00;98826.88;5107353;28;20008;-77
2023/02/18 07:03:16;;;;;;;1999.90;999.90;;;;;;;8.12;100.00;98834.25;5094601;28;20116;-76
2023/02/18 07:05:42;;;;;;;1999.90;999.90;;;;;;;8.16;100.00;98840.03;5093711;28;20031;-77
2023/02/18 07:08:08;;;;;;;1999.90;999.90;;;;;;;8.18;100.00;98844.13;5092537;28;20043;-79
2023/02/18 07:10:33;;;;;;;1999.90;999.90;;;;;;;8.28;100.00;98851.59;5091419;28;20050;-76
2023/02/18 07:12:59;;;;;;;1999.90;999.90;;;;;;;8.33;100.00;98841.56;5091462;28;20012;-79
2023/02/18 07:15:26;;;;;;;1999.90;999.90;;;;;;;8.34;100.00;98837.78;5092355;28;20020;-77
2023/02/18 07:17:52;;;;;;;1999.90;999.90;;;;;;;8.34;100.00;98829.59;5072306;28;20016;-79
2023/02/18 07:20:20;;;;;;;1999.90;999.90;;;;;;;8.43;100.00;98840.84;5072250;28;20048;-77
2023/02/18 07:22:45;;;;;;;1999.90;999.90;;;;;;;8.33;100.00;98836.13;5071797;28;20025;-80
2023/02/18 07:25:11;;;;;;;1999.90;999.90;;;;;;;8.39;100.00;98839.72;5072269;28;20022;-80
2023/02/18 07:27:36;;;;;;;1999.90;999.90;;;;;;;8.48;100.00;98835.44;5072429;28;20032;-79
2023/02/18 07:30:02;;;;;;;1999.90;999.90;;;;;;;8.35;100.00;98823.06;5072161;28;20032;-76
2023/02/18 07:32:28;;;;;;;1999.90;999.90;;;;;;;8.44;100.00;98842.50;5071695;28;20021;-75
2023/02/18 07:34:53;;;;;;;1999.90;999.90;;;;;;;8.39;100.00;98846.00;5072130;28;20031;-76
2023/02/18 07:37:20;;;;;;;1999.90;999.90;;;;;;;8.40;100.00;98842.19;5072371;28;20508;-76
2023/02/18 07:39:45;;;;;;;1999.90;999.90;;;;;;;8.40;100.00;98846.81;5087693;28;20028;-81
2023/02/18 07:42:12;;;;;;;1999.90;999.90;;;;;;;8.42;100.00;98850.94;5095976;28;20036;-86
2023/02/18 07:44:38;;;;;;;1999.90;999.90;;;;;;;8.35;100.00;98850.34;5084012;28;20025;-76
2023/02/18 07:47:05;;;;;;;1999.90;999.90;;;;;;;8.36;100.00;98851.16;5088494;28;20408;-81
2023/02/18 07:49:30;;;;;;;1999.90;999.90;;;;;;;8.33;100.00;98841.56;5095798;28;20047;-85
2023/02/18 07:51:56;;;;;;;1999.90;999.90;;;;;;;8.31;100.00;98851.09;5099372;28;20020;-85
2023/02/18 07:54:21;;;;;;;1999.90;999.90;;;;;;;8.22;100.00;98848.00;5111369;28;20028;-84
2023/02/18 07:56:48;;;;;;;1999.90;999.90;;;;;;;8.11;100.00;98842.72;5103603;28;20024;-86
2023/02/18 07:59:13;;;;;;;1999.90;999.90;;;;;;;8.18;100.00;98844.13;5106177;28;20714;-88
2023/02/18 08:01:39;;;;;;;1999.90;999.90;;;;;;;8.19;100.00;98850.41;5103714;28;20008;-85
2023/02/18 08:04:06;;;;;;;1999.90;999.90;;;;;;;8.32;100.00;98839.13;5108326;28;20024;-89
2023/02/18 08:06:44;;;;;;;1999.90;999.90;;;;;;;8.47;100.00;98845.53;5111882;28;20016;-83
2023/02/18 08:09:11;;;;;;;1999.90;999.90;;;;;;;8.68;100.00;98848.44;5115603;28;20028;-79
2023/02/18 08:11:36;;;;;;;1999.90;999.90;;;;;;;8.71;100.00;98839.72;5117921;28;20016;-81
2023/02/18 08:14:01;;;;;;;1999.90;999.90;;;;;;;8.78;100.00;98848.47;5117887;28;20023;-86
2023/02/18 08:16:27;;;;;;;1999.90;999.90;;;;;;;8.83;100.00;98852.09;5117729;28;20084;-86
2023/02/18 08:18:53;;;;;;;1999.90;999.90;;;;;;;8.91;100.00;98854.31;5118150;28;20024;-85
2023/02/18 08:21:20;;;;;;;1999.90;999.90;;;;;;;9.01;100.00;98848.94;5118098;28;20016;-79
2023/02/18 08:23:46;;;;;;;1999.90;999.90;;;;;;;9.07;100.00;98860.72;5115649;28;20015;-85
2023/02/18 08:26:12;;;;;;;1999.90;999.90;;;;;;;9.03;100.00;98865.03;5110187;28;20016;-81
2023/02/18 08:28:38;;;;;;;1999.90;999.90;;;;;;;9.04;100.00;98862.06;5105834;28;20032;-83
2023/02/18 08:31:03;;;;;;;1999.90;999.90;;;;;;;9.10;100.00;98868.38;5099355;28;20016;-84
2023/02/18 08:33:29;;;;;;;1999.90;999.90;;;;;;;9.08;100.00;98865.88;5108668;28;20103;-83
2023/02/18 08:35:55;;;;;;;1999.90;999.90;;;;;;;9.07;100.00;98863.44;5094030;28;20028;-78
2023/02/18 08:38:22;;;;;;;1999.90;999.90;;;;;;;9.17;100.00;98870.88;5090989;28;20456;-76
2023/02/18 08:40:48;;;;;;;1999.90;999.90;;;;;;;9.21;100.00;98864.59;5090692;28;20032;-76
2023/02/18 08:43:15;;;;;;;1999.90;999.90;;;;;;;9.25;100.00;98862.16;5090970;28;20387;-76
2023/02/18 08:45:41;;;;;;;1999.90;999.90;;;;;;;9.35;100.00;98859.50;5090690;28;20370;-77
2023/02/18 08:48:08;;;;;;;1999.90;999.90;;;;;;;9.37;100.00;98858.13;5089247;28;20030;-79
2023/02/18 08:50:34;;;;;;;1999.90;999.90;;;;;;;9.51;100.00;98862.06;5090688;28;20042;-85
2023/02/18 08:53:02;;;;;;;1999.90;999.90;;;;;;;9.49;100.00;98866.94;5099480;28;20027;-87
2023/02/18 08:55:28;;;;;;;1999.90;999.90;;;;;;;9.55;100.00;98865.88;5099532;28;20027;-80
2023/02/18 08:57:57;;;;;;;1999.90;999.90;;;;;;;9.55;99.46;98860.41;5102816;28;20020;-83
2023/02/18 09:00:22;;;;;;;1999.90;999.90;;;;;;;9.35;100.00;98854.88;5107666;28;20030;-83
2023/02/18 09:02:48;;;;;;;1999.90;999.90;;;;;;;9.45;99.72;98827.63;5106628;28;20008;-83
2023/02/18 09:05:13;;;;;;;1999.90;999.90;;;;;;;9.46;99.67;98853.81;5095998;28;20023;-80
2023/02/18 09:07:39;;;;;;;1999.90;999.90;;;;;;;9.47;99.97;98863.66;5092139;28;20195;-82
2023/02/18 09:10:06;;;;;;;1999.90;999.90;;;;;;;9.52;99.61;98860.94;5093015;28;20036;-76
2023/02/18 09:12:32;;;;;;;1999.90;999.90;;;;;;;9.39;100.00;98847.78;5094684;28;20032;-84
2023/02/18 09:14:57;;;;;;;1999.90;999.90;;;;;;;9.37;100.00;98840.94;5093027;28;20063;-77
2023/02/18 09:17:22;;;;;;;1999.90;999.90;;;;;;;9.47;99.42;98832.78;5090608;28;20070;-81
2023/02/18 09:19:48;;;;;;;1999.90;999.90;;;;;;;9.55;99.34;98837.75;5090496;28;20016;-76
2023/02/18 09:22:14;;;;;;;1999.90;999.90;;;;;;;9.55;99.39;98826.84;5091151;28;20122;-82
2023/02/18 09:24:40;;;;;;;1999.90;999.90;;;;;;;9.66;98.51;98840.25;5090078;28;20039;-75
2023/02/18 09:27:06;;;;;;;1999.90;999.90;;;;;;;9.76;97.63;98838.66;5090414;28;20028;-76
2023/02/18 09:29:32;;;;;;;1999.90;999.90;;;;;;;9.68;98.16;98837.25;5090543;28;20419;-74
2023/02/18 09:32:02;;;;;;;1999.90;999.90;;;;;;;9.75;97.41;98828.81;5090393;28;20082;-78
2023/02/18 09:34:28;;;;;;;1999.90;999.90;;;;;;;9.68;97.97;98834.50;5091882;28;20039;-76
2023/02/18 09:36:53;;;;;;;1999.90;999.90;;;;;;;9.68;98.05;98832.59;5090076;28;20020;-76
2023/02/18 09:39:19;;;;;;;1999.90;999.90;;;;;;;9.74;97.46;98827.19;5090826;28;20062;-78
2023/02/18 09:41:47;;;;;;;1999.90;999.90;;;;;;;9.73;98.58;98839.19;5089077;28;20055;-77
2023/02/18 09:44:18;;;;;;;1999.90;999.90;;;;;;;9.92;98.50;98835.72;5086166;28;20024;-74
2023/02/18 09:46:59;;;;;;;1999.90;999.90;;;;;;;9.84;96.31;98813.53;5093212;28;20109;-76
2023/02/18 09:49:33;;;;;;;1999.90;999.90;;;;;;;10.04;96.49;98827.25;5092498;28;20442;-74
2023/02/18 09:52:11;;;;;;;1999.90;999.90;;;;;;;10.09;94.73;98819.88;5093525;28;20027;-76
2023/02/18 09:54:36;;;;;;;1999.90;999.90;;;;;;;10.36;93.28;98825.16;5096180;28;20024;-85
2023/02/18 09:57:05;;;;;;;1999.90;999.90;;;;;;;10.34;92.35;98819.13;5096791;28;20020;-86
2023/02/18 09:59:30;;;;;;;1999.90;999.90;;;;;;;10.41;92.08;98819.66;5094714;28;20042;-75
2023/02/18 10:01:57;;;;;;;1999.90;999.90;;;;;;;10.20;92.25;98824.31;5093542;28;20032;-73
2023/02/18 10:04:34;;;;;;;1999.90;999.90;;;;;;;10.29;91.54;98826.50;5093368;28;20086;-75
2023/02/18 10:07:02;;;;;;;1999.90;999.90;;;;;;;10.37;91.45;98823.25;5092298;28;20105;-75
2023/02/18 10:09:32;;;;;;;1999.90;999.90;;;;;;;10.23;92.31;98817.47;5091665;28;20569;-74
2023/02/18 10:12:12;;;;;;;1999.90;999.90;;;;;;;10.39;91.84;98818.31;5093771;28;20024;-78
2023/02/18 10:14:37;;;;;;;1999.90;999.90;;;;;;;10.47;90.92;98813.09;5090709;28;20020;-75
2023/02/18 10:17:04;;;;;;;1999.90;999.90;;;;;;;10.60;90.50;98826.25;5095736;28;20433;-84
2023/02/18 10:19:33;;;;;;;1999.90;999.90;;;;;;;10.42;90.58;98810.38;5096757;28;20111;-88
2023/02/18 10:22:01;;;;;;;1999.90;999.90;;;;;;;10.54;89.89;98808.19;5109690;28;20041;-86
2023/02/18 10:24:45;;;;;;;1999.90;999.90;;;;;;;10.54;89.94;98818.31;5100869;28;20012;-88
2023/02/18 10:27:18;;;;;;;1999.90;999.90;;;;;;;10.40;91.12;98784.41;5097309;28;20134;-83
2023/02/18 10:29:43;;;;;;;1999.90;999.90;;;;;;;10.54;90.99;98813.66;5106343;28;20020;-84
2023/02/18 10:32:21;;;;;;;1999.90;999.90;;;;;;;10.53;90.76;98813.91;5099689;28;20053;-86
2023/02/18 10:34:59;;;;;;;1999.90;999.90;;;;;;;10.53;90.66;98812.00;5096471;28;20028;-86
2023/02/18 10:38:17;;;;;;;1999.90;999.90;;;;;;;10.41;91.77;98814.22;5107196;28;20039;-79
2023/02/18 10:41:11;;;;;;;;;;;;;;;10.28;93.98;98808.44;5082799;28;20036;-83
2023/02/18 10:44:15;;;;;;;1999.90;999.90;;;;;;;10.29;94.61;98805.44;5076679;28;19969;-87
2023/02/18 10:46:50;;;;;;;1999.90;999.90;;;;;;;10.35;94.17;98809.81;5106823;28;20046;-83
2023/02/18 10:49:26;;;;;;;1999.90;999.90;;;;;;;10.24;93.85;98790.97;5107383;28;20028;-84
2023/02/18 10:51:55;;;;;;;1999.90;999.90;;;;;;;10.35;94.32;98814.47;5105325;28;20058;-87
2023/02/18 10:54:46;;;;;;;1999.90;999.90;;;;;;;10.42;94.09;98817.75;5102929;28;20031;-85
2023/02/18 10:57:21;;;;;;;1999.90;999.90;;;;;;;10.43;93.27;98817.47;5112762;28;20033;-83
2023/02/18 11:00:16;;;;;;;1999.90;999.90;;;;;;;10.53;93.11;98813.91;5110880;28;20016;-83
2023/02/18 11:02:42;;;;;;;1999.90;999.90;;;;;;;10.60;92.53;98807.09;5108797;28;20024;-86